Time;durP1;ratioP1;P1;durP2;ratioP2;P2;SDS_P1;SDS_P2;PMS_P1;PMS_P2;Temp;Humidity;BMP_temperature;BMP_pressure;BME280_temperature;BME280_humidity;BME280_pressure;Samples;Min_cycle;Max_cycle;Signal;HPM_P1;HPM_P2
2023/08/14 06:11:02;;;;;;;5.00;3.53;;;;;;;;;;10500013;22;1521745;-85
2023/08/14 06:16:04;;;;;;;3.33;2.70;;;;;;;;;;10470456;28;20028;-84
2023/08/14 06:21:05;;;;;;;6.07;3.53;;;;;;;;;;10474311;28;20105;-84
2023/08/14 06:26:06;;;;;;;6.03;4.20;;;;;;;;;;10451717;28;20057;-84
2023/08/14 06:31:07;;;;;;;6.85;4.20;;;;;;;;;;10451881;28;20025;-84
2023/08/14 06:36:08;;;;;;;8.15;3.72;;;;;;;;;;10445761;28;20404;-84
2023/08/14 06:41:09;;;;;;;5.95;3.30;;;;;;;;;;10445883;28;20088;-84
2023/08/14 06:46:11;;;;;;;5.65;3.70;;;;;;;;;;10447286;28;20064;-84
2023/08/14 06:51:13;;;;;;;7.80;4.05;;;;;;;;;;10466712;28;20054;-84
2023/08/14 06:56:14;;;;;;;6.38;4.05;;;;;;;;;;10451236;28;20089;-83
2023/08/14 07:01:15;;;;;;;5.32;3.50;;;;;;;;;;10437541;28;20206;-83
2023/08/14 07:11:44;;;;;;;3.70;2.75;;;;;;;;;;10435442;28;20050;-84
2023/08/14 07:16:45;;;;;;;6.95;2.92;;;;;;;;;;10423441;28;20017;-85
2023/08/14 07:21:46;;;;;;;3.97;2.47;;;;;;;;;;10419375;28;20089;-84
2023/08/14 07:26:47;;;;;;;5.97;2.70;;;;;;;;;;10437759;28;20045;-84
2023/08/14 07:31:48;;;;;;;6.65;3.17;;;;;;;;;;10420706;28;20047;-84
2023/08/14 07:36:49;;;;;;;5.70;2.80;;;;;;;;;;10417702;28;20493;-84
2023/08/14 07:41:50;;;;;;;6.95;2.80;;;;;;;;;;10423166;28;20036;-85
2023/08/14 07:46:51;;;;;;;6.15;3.20;;;;;;;;;;10430343;28;20092;-83
2023/08/14 07:51:52;;;;;;;17.60;5.63;;;;;;;;;;10441913;28;20022;-84
2023/08/14 07:56:54;;;;;;;8.45;3.97;;;;;;;;;;10441340;28;20021;-80
2023/08/14 08:01:55;;;;;;;8.80;3.58;;;;;;;;;;10438293;28;20034;-83
2023/08/14 08:06:56;;;;;;;8.95;4.60;;;;;;;;;;10459985;28;20112;-82
2023/08/14 08:11:57;;;;;;;8.82;3.90;;;;;;;;;;10469554;28;20439;-83
2023/08/14 08:16:59;;;;;;;7.88;3.40;;;;;;;;;;10460587;28;20033;-83
2023/08/14 08:22:00;;;;;;;7.75;3.92;;;;;;;;;;10459796;28;20468;-83
2023/08/14 08:27:01;;;;;;;7.95;3.60;;;;;;;;;;10462071;28;20028;-83
2023/08/14 08:32:02;;;;;;;6.32;3.05;;;;;;;;;;10460325;28;20041;-82
2023/08/14 08:37:03;;;;;;;6.10;3.17;;;;;;;;;;10458002;28;20123;-82
2023/08/14 08:42:06;;;;;;;7.07;3.30;;;;;;;;;;10454923;28;20082;-82
2023/08/14 08:47:08;;;;;;;6.50;3.08;;;;;;;;;;10451240;28;20033;-82
2023/08/14 08:52:09;;;;;;;7.85;3.38;;;;;;;;;;10449215;28;20024;-82
2023/08/14 08:57:12;;;;;;;6.35;2.95;;;;;;;;;;10451480;28;20029;-82
2023/08/14 09:02:13;;;;;;;6.75;3.20;;;;;;;;;;10451602;28;20036;-82
2023/08/14 09:07:14;;;;;;;8.52;2.92;;;;;;;;;;10450043;28;20033;-83
2023/08/14 09:12:15;;;;;;;4.57;2.47;;;;;;;;;;10444228;28;20531;-82
2023/08/14 09:17:16;;;;;;;4.70;2.75;;;;;;;;;;10447155;28;20092;-82
2023/08/14 09:22:18;;;;;;;6.82;4.13;;;;;;;;;;10448300;28;20065;-85
2023/08/14 09:27:19;;;;;;;5.63;3.25;;;;;;;;;;10450150;28;20473;-81
2023/08/14 09:32:24;;;;;;;5.70;2.70;;;;;;;;;;10453656;28;20025;-82
2023/08/14 09:37:25;;;;;;;7.82;3.00;;;;;;;;;;10455212;28;20060;-81
2023/08/14 09:42:26;;;;;;;4.88;2.58;;;;;;;;;;10470897;28;20017;-84
2023/08/14 09:47:28;;;;;;;3.92;2.28;;;;;;;;;;10463305;28;20484;-82
2023/08/14 09:52:29;;;;;;;6.03;2.88;;;;;;;;;;10451993;28;20063;-83
2023/08/14 09:57:30;;;;;;;6.55;2.33;;;;;;;;;;10449218;28;20029;-82
2023/08/14 10:02:33;;;;;;;4.82;2.28;;;;;;;;;;10451090;28;20029;-82
2023/08/14 10:07:34;;;;;;;6.97;2.65;;;;;;;;;;10451617;28;20400;-83
2023/08/14 10:12:40;;;;;;;5.82;2.13;;;;;;;;;;10452696;28;20468;-84
2023/08/14 10:17:46;;;;;;;3.28;1.85;;;;;;;;;;10452973;28;20025;-84
2023/08/14 10:22:48;;;;;;;4.95;2.60;;;;;;;;;;10454743;28;20032;-84
2023/08/14 10:27:52;;;;;;;4.63;2.60;;;;;;;;;;10455283;28;20107;-83
2023/08/14 10:32:54;;;;;;;3.95;1.95;;;;;;;;;;10459956;28;20370;-84
2023/08/14 10:37:55;;;;;;;4.97;2.33;;;;;;;;;;10478468;28;20029;-83
2023/08/14 10:42:57;;;;;;;7.53;3.40;;;;;;;;;;10469389;28;20071;-84
2023/08/14 10:48:00;;;;;;;5.32;2.53;;;;;;;;;;10479570;28;20048;-83
2023/08/14 10:53:03;;;;;;;4.65;2.38;;;;;;;;;;10485374;28;20020;-84
2023/08/14 10:58:40;;;;;;;4.75;2.80;;;;;;;;;;10489552;28;20036;-84
2023/08/14 11:04:00;;;;;;;5.90;2.63;;;;;;;;;;10346970;28;20116;-84
2023/08/14 11:09:05;;;;;;;5.95;3.30;;;;;;;;;;10479088;28;20063;-83
2023/08/14 11:14:06;;;;;;;5.38;2.40;;;;;;;;;;10458122;28;20028;-84
2023/08/14 11:19:07;;;;;;;5.80;2.67;;;;;;;;;;10474773;28;20017;-84
2023/08/14 11:24:12;;;;;;;7.88;2.95;;;;;;;;;;10458255;28;20025;-84
2023/08/14 11:29:13;;;;;;;4.60;2.15;;;;;;;;;;10477497;28;20025;-85
2023/08/14 11:34:14;;;;;;;4.10;2.42;;;;;;;;;;10458994;28;20084;-84
2023/08/14 11:39:15;;;;;;;3.85;2.28;;;;;;;;;;10460141;28;20068;-83
2023/08/14 11:44:17;;;;;;;5.88;2.83;;;;;;;;;;10459421;28;20055;-84
2023/08/14 11:49:18;;;;;;;5.80;2.83;;;;;;;;;;10482118;28;20423;-83
2023/08/14 11:54:19;;;;;;;3.38;2.10;;;;;;;;;;10461985;28;20488;-83
2023/08/14 11:59:20;;;;;;;5.30;2.42;;;;;;;;;;10454680;28;20032;-83
2023/08/14 12:04:21;;;;;;;7.57;2.90;;;;;;;;;;10471383;28;20017;-83
2023/08/14 12:09:27;;;;;;;4.10;1.95;;;;;;;;;;10454985;23;20042;-80
2023/08/14 12:14:41;;;;;;;4.18;2.30;;;;;;;;;;10377124;28;20033;-78
2023/08/14 12:19:43;;;;;;;4.55;2.10;;;;;;;;;;10384403;28;20025;-78
2023/08/14 12:24:44;;;;;;;5.07;2.03;;;;;;;;;;10404844;28;20026;-78
2023/08/14 12:29:45;;;;;;;5.25;2.20;;;;;;;;;;10405153;28;20029;-79
2023/08/14 12:34:47;;;;;;;5.82;2.83;;;;;;;;;;10407767;28;20177;-78
2023/08/14 12:39:52;;;;;;;4.15;2.17;;;;;;;;;;10406790;28;20032;-78
2023/08/14 12:44:53;;;;;;;4.20;2.60;;;;;;;;;;10406901;28;20026;-80
2023/08/14 12:49:54;;;;;;;5.63;2.40;;;;;;;;;;10406426;28;20481;-79
2023/08/14 12:54:55;;;;;;;4.65;2.33;;;;;;;;;;10405432;28;20029;-79
2023/08/14 12:59:56;;;;;;;3.90;2.15;;;;;;;;;;10403793;28;20037;-79
2023/08/14 13:05:07;;;;;;;6.03;2.83;;;;;;;;;;10403790;28;20056;-78
2023/08/14 13:10:08;;;;;;;5.05;3.05;;;;;;;;;;10392680;28;20068;-80
2023/08/14 13:15:09;;;;;;;6.18;2.78;;;;;;;;;;10426471;28;20021;-80
2023/08/14 13:20:10;;;;;;;11.25;2.42;;;;;;;;;;10413005;28;20025;-81
2023/08/14 13:25:11;;;;;;;4.28;2.45;;;;;;;;;;10433312;28;20037;-82
2023/08/14 13:30:12;;;;;;;5.68;2.95;;;;;;;;;;10421646;28;20045;-79
2023/08/14 13:35:13;;;;;;;7.63;2.63;;;;;;;;;;10418436;28;20025;-80
2023/08/14 13:40:14;;;;;;;5.45;2.72;;;;;;;;;;10420576;28;20044;-81
2023/08/14 13:45:15;;;;;;;5.63;2.70;;;;;;;;;;10435173;28;20458;-83
2023/08/14 13:50:22;;;;;;;6.15;2.58;;;;;;;;;;10411643;28;20153;-85
2023/08/14 13:55:23;;;;;;;6.65;4.55;;;;;;;;;;10392841;28;20030;-83
2023/08/14 14:00:25;;;;;;;5.57;2.88;;;;;;;;;;10406000;28;20025;-83
2023/08/14 14:05:26;;;;;;;5.65;2.72;;;;;;;;;;10407814;28;20029;-81
2023/08/14 14:10:27;;;;;;;6.65;2.80;;;;;;;;;;10414105;28;20068;-82
2023/08/14 14:15:28;;;;;;;5.80;3.00;;;;;;;;;;10414799;28;20030;-83
2023/08/14 14:20:29;;;;;;;5.72;2.80;;;;;;;;;;10415440;28;20103;-82
2023/08/14 14:25:30;;;;;;;5.60;3.10;;;;;;;;;;10415377;28;20120;-82
2023/08/14 14:30:31;;;;;;;7.05;3.20;;;;;;;;;;10415031;28;20021;-85
2023/08/14 14:35:33;;;;;;;5.47;2.72;;;;;;;;;;10414578;28;20493;-83
2023/08/14 14:40:34;;;;;;;6.43;3.40;;;;;;;;;;10423470;28;20032;-81
2023/08/14 14:45:35;;;;;;;5.72;3.33;;;;;;;;;;10435586;28;20115;-83
2023/08/14 14:50:36;;;;;;;7.13;3.05;;;;;;;;;;10432863;28;20029;-82
2023/08/14 14:55:37;;;;;;;7.20;4.35;;;;;;;;;;10413948;28;20022;-83
2023/08/14 15:00:38;;;;;;;8.25;3.45;;;;;;;;;;10431286;28;20108;-82
2023/08/14 15:05:39;;;;;;;5.75;3.45;;;;;;;;;;10430572;28;20109;-84
2023/08/14 15:10:40;;;;;;;5.60;3.78;;;;;;;;;;10421245;28;20037;-85
2023/08/14 15:15:41;;;;;;;5.47;3.40;;;;;;;;;;10449361;28;20032;-84
2023/08/14 15:20:42;;;;;;;7.68;3.10;;;;;;;;;;10446995;28;20017;-85
2023/08/14 15:25:43;;;;;;;7.95;3.25;;;;;;;;;;10415142;28;20033;-84
2023/08/14 15:30:44;;;;;;;7.55;3.20;;;;;;;;;;10408263;28;20112;-84
2023/08/14 15:35:45;;;;;;;8.18;3.85;;;;;;;;;;10408028;28;20512;-85
2023/08/14 15:40:47;;;;;;;4.25;3.05;;;;;;;;;;10408830;28;20036;-85
2023/08/14 15:45:48;;;;;;;5.50;3.35;;;;;;;;;;10408450;28;20080;-85
2023/08/14 15:50:52;;;;;;;4.68;3.05;;;;;;;;;;10405425;28;20026;-84
2023/08/14 15:55:56;;;;;;;6.35;3.55;;;;;;;;;;10412069;28;20044;-83
2023/08/14 16:00:57;;;;;;;5.40;2.83;;;;;;;;;;10432003;28;20029;-85
2023/08/14 16:05:58;;;;;;;4.50;2.88;;;;;;;;;;10411236;28;20124;-85
2023/08/14 16:11:00;;;;;;;4.47;3.00;;;;;;;;;;10409197;28;20037;-85
2023/08/14 16:16:01;;;;;;;4.40;2.80;;;;;;;;;;10427044;28;20081;-85
2023/08/14 16:21:03;;;;;;;4.75;2.90;;;;;;;;;;10412410;28;20030;-83
2023/08/14 16:26:04;;;;;;;3.75;2.70;;;;;;;;;;10411672;28;20436;-84
2023/08/14 16:31:19;;;;;;;4.10;2.47;;;;;;;;;;10437555;28;20017;-85
2023/08/14 16:42:01;;;;;;;4.47;2.67;;;;;;;;;;10422667;28;20191;-86
2023/08/14 16:47:02;;;;;;;4.78;3.13;;;;;;;;;;10420966;28;20461;-87
2023/08/14 16:52:03;;;;;;;6.00;2.72;;;;;;;;;;10402644;28;20033;-87
2023/08/14 16:57:06;;;;;;;5.22;2.80;;;;;;;;;;10402624;28;20021;-87
2023/08/14 17:02:07;;;;;;;4.90;3.10;;;;;;;;;;10403174;28;20028;-86
2023/08/14 17:07:08;;;;;;;3.83;2.70;;;;;;;;;;10408643;28;20141;-86
2023/08/14 17:12:09;;;;;;;4.10;2.63;;;;;;;;;;10402458;28;20042;-87
2023/08/14 17:17:10;;;;;;;6.20;2.72;;;;;;;;;;10401557;28;20108;-86
2023/08/14 17:22:11;;;;;;;4.05;2.80;;;;;;;;;;10419773;28;20104;-86
2023/08/14 17:27:12;;;;;;;5.15;2.65;;;;;;;;;;10419627;28;20029;-86
2023/08/14 17:32:13;;;;;;;3.50;2.80;;;;;;;;;;10401186;28;20065;-86
2023/08/14 17:37:15;;;;;;;4.45;3.00;;;;;;;;;;10419160;28;20118;-86
2023/08/14 17:42:16;;;;;;;5.53;3.20;;;;;;;;;;10418467;28;20160;-87
2023/08/14 17:47:17;;;;;;;7.38;5.78;;;;;;;;;;10402265;28;20029;-86
2023/08/14 17:52:18;;;;;;;6.35;3.65;;;;;;;;;;10419146;28;20105;-86
2023/08/14 17:57:19;;;;;;;5.60;3.15;;;;;;;;;;10400297;28;20025;-87
2023/08/14 18:02:20;;;;;;;5.20;3.17;;;;;;;;;;10401298;28;20088;-86
2023/08/14 18:07:21;;;;;;;4.50;3.13;;;;;;;;;;10401475;28;20133;-84
2023/08/14 18:12:23;;;;;;;6.13;4.10;;;;;;;;;;10411501;28;20057;-84
2023/08/14 18:17:24;;;;;;;6.38;3.10;;;;;;;;;;10415051;28;20037;-84
2023/08/14 18:22:28;;;;;;;5.13;3.22;;;;;;;;;;10413313;28;20132;-84
2023/08/14 18:27:29;;;;;;;5.68;3.40;;;;;;;;;;10436675;28;20022;-83
2023/08/14 18:38:12;;;;;;;5.05;3.00;;;;;;;;;;10429819;28;20041;-85
2023/08/14 18:43:17;;;;;;;5.32;3.30;;;;;;;;;;10430608;28;20021;-85
2023/08/14 18:54:06;;;;;;;5.10;3.15;;;;;;;;;;10430391;28;20022;-85
2023/08/14 18:59:29;;;;;;;5.07;3.40;;;;;;;;;;10414943;28;20030;-83
2023/08/14 19:04:31;;;;;;;5.40;3.47;;;;;;;;;;10414176;28;20030;-84
2023/08/14 19:09:47;;;;;;;53.30;48.03;;;;;;;;;;10434562;28;20029;-84
